Time;durP1;ratioP1;P1;durP2;ratioP2;P2;SDS_P1;SDS_P2;PMS_P1;PMS_P2;Temp;Humidity;BMP_temperature;BMP_pressure;BME280_temperature;BME280_humidity;BME280_pressure;Samples;Min_cycle;Max_cycle;Signal;HPM_P1;HPM_P2
2020/12/29 00:00:50;;;;;;;7.43;1.70;;;5.40;68.80;;;;;;5008136;28;79817;-74
2020/12/29 00:03:25;;;;;;;5.82;1.50;;;5.30;68.70;;;;;;5025422;28;80907;-73
2020/12/29 00:05:51;;;;;;;7.90;2.10;;;5.40;68.80;;;;;;5025714;28;81728;-79
2020/12/29 00:08:18;;;;;;;9.02;2.25;;;5.30;68.70;;;;;;5025552;28;82099;-74
2020/12/29 00:10:44;;;;;;;8.23;1.65;;;5.40;68.80;;;;;;5026007;28;80665;-79
2020/12/29 00:13:10;;;;;;;10.15;1.73;;;5.30;69.00;;;;;;5025555;28;79989;-82
2020/12/29 00:15:40;;;;;;;16.95;2.67;;;5.40;69.20;;;;;;5007323;28;81054;-80
2020/12/29 00:18:07;;;;;;;9.38;1.45;;;5.30;69.20;;;;;;5025568;28;80595;-79
2020/12/29 00:20:32;;;;;;;11.73;2.03;;;5.30;69.30;;;;;;5025645;28;80224;-78
2020/12/29 00:22:59;;;;;;;6.45;1.33;;;5.30;69.30;;;;;;5025450;28;80502;-75
2020/12/29 00:25:24;;;;;;;7.13;1.48;;;5.20;69.30;;;;;;5024558;28;81017;-74
2020/12/29 00:27:50;;;;;;;13.13;2.10;;;5.30;69.50;;;;;;5028927;28;80500;-81
2020/12/29 00:30:16;;;;;;;5.50;1.55;;;5.20;69.60;;;;;;5028841;28;80164;-75
2020/12/29 00:32:42;;;;;;;7.60;2.25;;;5.20;69.50;;;;;;5010902;28;82549;-82
2020/12/29 00:35:07;;;;;;;9.60;2.08;;;5.20;69.70;;;;;;5027178;28;80582;-78
2020/12/29 00:37:33;;;;;;;6.65;1.48;;;5.20;70.10;;;;;;5028648;28;80465;-79
2020/12/29 00:39:59;;;;;;;9.98;2.33;;;5.10;70.10;;;;;;5011191;28;81439;-86
2020/12/29 00:42:25;;;;;;;9.38;1.80;;;5.10;70.10;;;;;;5029584;28;80760;-81
2020/12/29 00:44:50;;;;;;;7.32;1.23;;;5.10;70.40;;;;;;5029047;28;79879;-89
2020/12/29 00:47:18;;;;;;;9.18;1.92;;;5.10;70.70;;;;;;5029543;28;80629;-87
2020/12/29 00:49:43;;;;;;;9.23;1.52;;;5.10;70.70;;;;;;5010777;28;82795;-82
2020/12/29 00:52:09;;;;;;;13.85;2.85;;;5.00;70.90;;;;;;5029732;28;79669;-86
2020/12/29 00:54:35;;;;;;;6.43;1.50;;;5.00;71.10;;;;;;5029590;28;80265;-80
2020/12/29 00:57:00;;;;;;;7.97;2.50;;;5.00;71.30;;;;;;5028857;28;80880;-78
2020/12/29 00:59:26;;;;;;;10.50;1.73;;;4.90;71.70;;;;;;5010265;28;80661;-80
2020/12/29 01:01:56;;;;;;;4.47;1.02;;;4.90;71.50;;;;;;5010264;28;81179;-84
2020/12/29 01:04:23;;;;;;;8.18;1.48;;;4.90;71.80;;;;;;5028534;28;80167;-73
2020/12/29 01:06:49;;;;;;;4.88;1.40;;;4.90;72.00;;;;;;5028522;28;79619;-75
2020/12/29 01:09:15;;;;;;;8.65;1.95;;;4.90;72.10;;;;;;5028490;28;80376;-74
2020/12/29 01:11:41;;;;;;;4.72;1.30;;;4.90;72.10;;;;;;5009680;28;83862;-74
2020/12/29 01:14:07;;;;;;;6.55;1.77;;;4.90;72.30;;;;;;5010044;28;83226;-76
2020/12/29 01:16:33;;;;;;;6.53;1.42;;;4.80;72.40;;;;;;5009840;28;81176;-74
2020/12/29 01:18:58;;;;;;;9.50;1.30;;;4.90;72.20;;;;;;5009761;28;80489;-71
2020/12/29 01:21:24;;;;;;;7.10;1.20;;;4.80;72.70;;;;;;5028287;28;80580;-74
2020/12/29 01:23:50;;;;;;;7.65;1.40;;;4.80;72.70;;;;;;5009428;28;81346;-75
2020/12/29 01:26:26;;;;;;;8.88;2.08;;;4.70;72.70;;;;;;5009508;28;83526;-83
2020/12/29 01:28:52;;;;;;;9.80;2.50;;;4.80;72.60;;;;;;5009522;28;83471;-83
2020/12/29 01:31:31;;;;;;;11.27;1.55;;;4.80;72.50;;;;;;5028381;28;79889;-74
2020/12/29 01:33:58;;;;;;;8.00;2.20;;;4.70;72.60;;;;;;5009446;28;83184;-74
2020/12/29 01:36:25;;;;;;;7.15;1.85;;;4.70;72.70;;;;;;5007304;28;82827;-75
2020/12/29 01:38:51;;;;;;;6.60;1.70;;;4.70;72.90;;;;;;5027287;28;80240;-74
2020/12/29 01:41:19;;;;;;;8.27;1.38;;;4.70;72.60;;;;;;5009457;28;81860;-73
2020/12/29 01:43:45;;;;;;;5.78;1.00;;;4.70;72.70;;;;;;5027508;28;80165;-73
2020/12/29 01:46:11;;;;;;;10.65;1.80;;;4.70;72.70;;;;;;5008930;28;80783;-74
2020/12/29 01:48:37;;;;;;;6.05;1.48;;;4.70;72.80;;;;;;5027552;28;80718;-72
2020/12/29 01:51:03;;;;;;;5.10;1.40;;;4.70;72.80;;;;;;5009148;28;81063;-75
2020/12/29 01:53:29;;;;;;;10.23;2.30;;;4.60;72.80;;;;;;5027869;28;80397;-82
2020/12/29 01:55:55;;;;;;;6.47;1.27;;;4.60;72.90;;;;;;5027698;28;80615;-76
2020/12/29 01:58:21;;;;;;;7.55;1.40;;;4.60;73.00;;;;;;5026739;28;80107;-77
2020/12/29 02:00:48;;;;;;;9.43;2.22;;;4.60;73.00;;;;;;5008800;28;84791;-77
2020/12/29 02:03:17;;;;;;;5.40;1.00;;;4.60;73.10;;;;;;5009106;28;81385;-80
2020/12/29 02:05:47;;;;;;;9.98;1.58;;;4.60;73.10;;;;;;5009002;28;81094;-75
2020/12/29 02:08:14;;;;;;;14.35;1.90;;;4.60;73.20;;;;;;5027429;28;80743;-86
2020/12/29 02:10:44;;;;;;;7.25;1.80;;;4.60;73.00;;;;;;5009294;28;83428;-79
2020/12/29 02:13:10;;;;;;;5.95;1.55;;;4.60;73.10;;;;;;5027697;28;79817;-86
2020/12/29 02:15:36;;;;;;;8.93;2.03;;;4.50;73.20;;;;;;5009011;28;80743;-83
2020/12/29 02:18:02;;;;;;;14.68;2.20;;;4.50;73.30;;;;;;5008757;28;81286;-82
2020/12/29 02:20:28;;;;;;;9.70;1.55;;;4.50;73.50;;;;;;5008820;28;80984;-84
2020/12/29 02:22:54;;;;;;;7.25;1.38;;;4.40;73.40;;;;;;5026756;28;79911;-82
2020/12/29 02:25:20;;;;;;;13.82;1.90;;;4.40;73.50;;;;;;5008382;28;79779;-79
2020/12/29 02:27:48;;;;;;;6.60;1.58;;;4.40;73.40;;;;;;5026999;28;79780;-80
2020/12/29 02:30:16;;;;;;;8.85;2.15;;;4.50;73.40;;;;;;5026868;28;80576;-81
2020/12/29 02:32:41;;;;;;;9.65;1.75;;;4.40;73.50;;;;;;5026651;28;79839;-81
2020/12/29 02:35:09;;;;;;;6.13;1.58;;;4.40;73.50;;;;;;5008695;28;83901;-74
2020/12/29 02:37:35;;;;;;;14.90;1.88;;;4.40;73.50;;;;;;5008065;28;82766;-75
2020/12/29 02:40:01;;;;;;;6.03;1.50;;;4.40;73.50;;;;;;5008433;28;83296;-74
2020/12/29 02:42:27;;;;;;;7.97;1.38;;;4.40;73.70;;;;;;5027037;28;80795;-73
2020/12/29 02:44:52;;;;;;;8.70;1.75;;;4.40;73.80;;;;;;5007855;28;82822;-73
2020/12/29 02:47:18;;;;;;;11.05;1.90;;;4.40;73.70;;;;;;5025339;28;80578;-73
2020/12/29 02:49:44;;;;;;;4.25;0.95;;;4.30;73.90;;;;;;5008406;28;83577;-80
2020/12/29 02:52:10;;;;;;;4.93;1.20;;;4.30;74.00;;;;;;5008379;28;83326;-77
2020/12/29 02:54:36;;;;;;;5.28;1.42;;;4.30;74.00;;;;;;5008181;28;83864;-75
2020/12/29 02:57:02;;;;;;;6.47;1.65;;;4.30;74.10;;;;;;5008010;28;81451;-77
2020/12/29 02:59:27;;;;;;;11.07;1.70;;;4.30;74.10;;;;;;5026702;28;81026;-75
2020/12/29 03:01:53;;;;;;;6.55;1.73;;;4.30;74.10;;;;;;5007837;28;82643;-75
2020/12/29 03:04:20;;;;;;;5.43;1.45;;;4.30;74.30;;;;;;5008805;28;79968;-81
2020/12/29 03:06:46;;;;;;;9.57;1.90;;;4.30;74.40;;;;;;5007890;28;80841;-81
2020/12/29 03:09:12;;;;;;;4.32;1.20;;;4.20;74.50;;;;;;5026502;28;80408;-82
2020/12/29 03:11:38;;;;;;;8.80;2.08;;;4.20;74.40;;;;;;5007922;28;83164;-77
2020/12/29 03:14:06;;;;;;;7.00;2.15;;;4.20;74.70;;;;;;5026614;28;80529;-78
2020/12/29 03:16:32;;;;;;;8.15;1.60;;;4.20;74.60;;;;;;5027163;28;80710;-79
2020/12/29 03:18:58;;;;;;;11.52;2.60;;;4.20;74.80;;;;;;5026821;28;81112;-85
2020/12/29 03:21:24;;;;;;;5.50;1.45;;;4.10;74.80;;;;;;5028616;28;79795;-79
2020/12/29 03:23:50;;;;;;;18.95;1.63;;;4.10;74.90;;;;;;5009215;28;80521;-84
2020/12/29 03:26:19;;;;;;;8.05;1.60;;;4.10;75.10;;;;;;5026800;28;80320;-88
2020/12/29 03:28:45;;;;;;;11.25;1.45;;;4.10;75.00;;;;;;5007727;28;80767;-77
2020/12/29 03:31:11;;;;;;;7.20;1.42;;;4.00;74.90;;;;;;5026091;28;80585;-79
2020/12/29 03:33:37;;;;;;;9.43;1.98;;;4.10;74.90;;;;;;5026151;28;80870;-76
2020/12/29 03:36:03;;;;;;;8.27;1.60;;;4.00;74.90;;;;;;5025872;28;80115;-79
2020/12/29 03:38:29;;;;;;;11.95;1.73;;;4.00;74.80;;;;;;5007329;28;82966;-81
2020/12/29 03:40:55;;;;;;;7.85;1.70;;;4.00;75.00;;;;;;5007346;28;79811;-79
2020/12/29 03:43:22;;;;;;;6.50;1.17;;;4.00;75.00;;;;;;5007589;28;83077;-77
2020/12/29 03:45:49;;;;;;;7.30;1.73;;;4.00;75.10;;;;;;5025115;28;82400;-84
2020/12/29 03:48:18;;;;;;;5.78;1.98;;;4.00;75.30;;;;;;5007433;28;83336;-84
2020/12/29 03:50:44;;;;;;;6.30;2.00;;;4.10;75.30;;;;;;5025826;28;80175;-82
2020/12/29 03:53:10;;;;;;;10.32;1.65;;;4.00;75.20;;;;;;5007006;28;82939;-83
2020/12/29 03:55:36;;;;;;;9.57;1.67;;;4.10;75.30;;;;;;5025696;28;80210;-83
2020/12/29 03:58:04;;;;;;;6.35;1.52;;;4.10;75.30;;;;;;5025169;28;80469;-80
2020/12/29 04:00:29;;;;;;;12.55;2.10;;;4.00;75.30;;;;;;5024226;28;81292;-79
2020/12/29 04:02:55;;;;;;;4.63;1.50;;;4.00;75.40;;;;;;5011158;28;81779;-87
2020/12/29 04:05:21;;;;;;;12.48;2.42;;;4.10;75.50;;;;;;5010905;28;82995;-80
2020/12/29 04:07:48;;;;;;;5.38;1.20;;;4.10;75.40;;;;;;5029510;28;81220;-86
2020/12/29 04:10:14;;;;;;;7.28;1.23;;;4.00;75.40;;;;;;5029155;28;80185;-83
2020/12/29 04:12:40;;;;;;;3.95;1.40;;;4.00;75.50;;;;;;5028861;28;80629;-84
2020/12/29 04:15:07;;;;;;;6.32;1.35;;;4.00;75.60;;;;;;5029224;28;79751;-83
2020/12/29 04:17:39;;;;;;;9.00;1.27;;;4.00;75.70;;;;;;5011658;28;83873;-87
2020/12/29 04:20:08;;;;;;;6.20;1.52;;;4.00;75.80;;;;;;5030001;28;79730;-92
2020/12/29 04:22:34;;;;;;;5.63;1.48;;;4.00;75.90;;;;;;5029791;28;79808;-85
2020/12/29 04:25:01;;;;;;;8.77;1.52;;;3.90;76.00;;;;;;5010630;28;80449;-78
2020/12/29 04:27:27;;;;;;;11.45;1.67;;;3.90;76.10;;;;;;5010132;28;83119;-77
2020/12/29 04:29:53;;;;;;;9.85;1.83;;;3.90;76.30;;;;;;5010777;28;80343;-75
2020/12/29 04:32:20;;;;;;;17.13;2.25;;;3.90;76.40;;;;;;5010582;28;80999;-75
2020/12/29 04:34:47;;;;;;;6.07;1.42;;;3.90;76.40;;;;;;5008770;28;80338;-71
2020/12/29 04:37:17;;;;;;;11.10;1.42;;;3.90;76.40;;;;;;5028930;28;79925;-77
2020/12/29 04:39:43;;;;;;;7.43;1.95;;;3.90;76.50;;;;;;5010348;28;82650;-75
2020/12/29 04:42:14;;;;;;;6.75;1.52;;;3.80;76.70;;;;;;5028697;28;80743;-76
2020/12/29 04:44:42;;;;;;;6.95;1.92;;;3.80;76.80;;;;;;5010280;28;83653;-81
2020/12/29 04:47:11;;;;;;;5.03;1.15;;;3.90;77.00;;;;;;5028575;28;80718;-77
2020/12/29 04:49:38;;;;;;;7.82;1.48;;;3.80;76.90;;;;;;5028813;28;79798;-75
2020/12/29 04:52:06;;;;;;;8.35;1.60;;;3.80;77.00;;;;;;5010481;28;82663;-72
2020/12/29 04:54:36;;;;;;;7.63;1.17;;;3.80;77.10;;;;;;5028645;28;80855;-75
2020/12/29 04:57:03;;;;;;;10.20;1.92;;;3.80;77.00;;;;;;5028164;28;80752;-80
2020/12/29 04:59:30;;;;;;;8.68;1.40;;;3.80;77.00;;;;;;5009811;28;82180;-75
2020/12/29 05:01:57;;;;;;;10.43;2.05;;;3.80;77.20;;;;;;5009590;28;82278;-72
2020/12/29 05:04:23;;;;;;;6.80;1.52;;;3.70;77.10;;;;;;5026594;28;80340;-74
2020/12/29 05:06:50;;;;;;;10.45;2.65;;;3.70;77.20;;;;;;5028438;28;80537;-75
2020/12/29 05:09:18;;;;;;;8.38;1.50;;;3.70;77.20;;;;;;5027099;28;80515;-76
2020/12/29 05:11:44;;;;;;;3.97;1.27;;;3.70;77.10;;;;;;5009643;28;82075;-74
2020/12/29 05:14:10;;;;;;;7.15;1.60;;;3.70;77.30;;;;;;5026482;28;80529;-77
2020/12/29 05:16:39;;;;;;;6.32;1.40;;;3.70;77.30;;;;;;5028563;28;81732;-78
2020/12/29 05:19:07;;;;;;;6.20;1.45;;;3.70;77.20;;;;;;5028639;28;80328;-82
2020/12/29 05:21:37;;;;;;;6.35;1.58;;;3.70;77.40;;;;;;5009930;28;82125;-74
2020/12/29 05:24:13;;;;;;;3.55;1.00;;;3.70;77.40;;;;;;5009671;28;82025;-82
2020/12/29 05:26:40;;;;;;;10.82;2.08;;;3.70;77.30;;;;;;5005563;28;80754;-84
2020/12/29 05:29:07;;;;;;;8.55;1.95;;;3.70;77.10;;;;;;5028076;28;80338;-80
2020/12/29 05:31:34;;;;;;;8.05;1.38;;;3.70;77.20;;;;;;5028457;28;80074;-79
2020/12/29 05:34:01;;;;;;;6.78;1.40;;;3.70;77.00;;;;;;5010759;28;83376;-84
2020/12/29 05:36:27;;;;;;;6.55;1.70;;;3.70;76.90;;;;;;5030053;28;79792;-82
2020/12/29 05:39:09;;;;;;;6.63;1.05;;;3.70;77.00;;;;;;5029230;28;80174;-83
2020/12/29 05:41:41;;;;;;;8.30;1.98;;;3.70;77.10;;;;;;5011339;28;82593;-86
2020/12/29 05:44:10;;;;;;;4.60;2.08;;;3.70;77.30;;;;;;5028645;28;80253;-88
2020/12/29 05:46:36;;;;;;;9.52;1.48;;;3.60;77.20;;;;;;5031642;28;79779;-92
2020/12/29 05:49:03;;;;;;;8.25;1.52;;;3.70;77.00;;;;;;5009443;28;82776;-83
2020/12/29 05:51:29;;;;;;;10.43;1.58;;;3.70;77.00;;;;;;5028701;28;80768;-73
2020/12/29 05:54:00;;;;;;;8.70;1.38;;;3.60;77.10;;;;;;5028111;28;80575;-85
2020/12/29 05:56:30;;;;;;;11.27;2.05;;;3.60;77.40;;;;;;5009358;28;83780;-77
2020/12/29 05:58:57;;;;;;;6.47;1.70;;;3.60;77.40;;;;;;5008629;28;82382;-80
2020/12/29 06:01:22;;;;;;;5.15;2.28;;;3.50;77.40;;;;;;5026482;28;80776;-78
2020/12/29 06:03:50;;;;;;;8.70;1.63;;;3.50;77.40;;;;;;5027363;28;80195;-76
2020/12/29 06:06:16;;;;;;;10.68;2.60;;;3.50;77.40;;;;;;5009680;28;83556;-81
2020/12/29 06:08:42;;;;;;;7.20;2.72;;;3.50;77.30;;;;;;5009005;28;82522;-71
2020/12/29 06:11:15;;;;;;;7.70;1.65;;;3.50;77.40;;;;;;5027461;28;79784;-73
2020/12/29 06:13:47;;;;;;;8.50;2.10;;;3.50;77.60;;;;;;5008898;28;80548;-79
2020/12/29 06:16:17;;;;;;;5.93;1.10;;;3.50;77.50;;;;;;5025620;28;80952;-84
2020/12/29 06:18:46;;;;;;;4.47;1.55;;;3.60;77.50;;;;;;5008785;28;81508;-79
2020/12/29 06:21:13;;;;;;;6.80;1.65;;;3.50;77.50;;;;;;5027300;28;80645;-81
2020/12/29 06:23:45;;;;;;;10.70;2.53;;;3.60;77.50;;;;;;5008625;28;83067;-78
2020/12/29 06:26:12;;;;;;;8.38;1.92;;;3.60;77.60;;;;;;5008481;28;80750;-77
2020/12/29 06:28:46;;;;;;;9.85;2.05;;;3.60;77.50;;;;;;5027390;28;80363;-79
2020/12/29 06:31:25;;;;;;;11.63;2.38;;;3.60;77.40;;;;;;5009100;28;81070;-79
2020/12/29 06:33:54;;;;;;;4.88;1.55;;;3.60;77.50;;;;;;5027296;28;80235;-75
2020/12/29 06:36:21;;;;;;;7.80;1.40;;;3.60;77.30;;;;;;5008882;28;80942;-70
2020/12/29 06:38:57;;;;;;;9.38;1.75;;;3.60;77.20;;;;;;5003253;28;82452;-71
2020/12/29 06:41:24;;;;;;;5.60;1.40;;;3.60;77.30;;;;;;5016704;28;81231;-70
2020/12/29 06:43:51;;;;;;;8.05;2.00;;;3.60;77.30;;;;;;4989522;28;81250;-73
2020/12/29 06:46:19;;;;;;;6.68;1.75;;;3.60;77.30;;;;;;4990035;28;82878;-72
2020/12/29 06:48:45;;;;;;;6.50;1.45;;;3.60;77.30;;;;;;4991976;28;81441;-72
2020/12/29 06:51:15;;;;;;;7.68;2.10;;;3.60;77.20;;;;;;4974835;28;81615;-72
2020/12/29 06:53:42;;;;;;;6.40;1.70;;;3.60;77.10;;;;;;5009334;28;81196;-69
2020/12/29 06:56:17;;;;;;;10.27;1.83;;;3.60;77.10;;;;;;4989127;28;81827;-69
2020/12/29 06:58:44;;;;;;;5.88;1.90;;;3.60;77.00;;;;;;4975727;28;81026;-70
2020/12/29 07:01:21;;;;;;;8.60;2.58;;;3.60;77.00;;;;;;4994442;28;81411;-72
2020/12/29 07:03:48;;;;;;;3.67;1.10;;;3.60;77.20;;;;;;4991566;28;80346;-72
2020/12/29 07:06:16;;;;;;;6.15;1.30;;;3.60;77.00;;;;;;5012216;28;81653;-72
2020/12/29 07:08:42;;;;;;;6.25;1.65;;;3.60;77.10;;;;;;4988916;28;81301;-73
2020/12/29 07:11:25;;;;;;;6.57;1.92;;;3.60;77.20;;;;;;5007004;28;81545;-74
2020/12/29 07:13:51;;;;;;;6.30;1.83;;;3.60;77.20;;;;;;4989616;28;82017;-75
2020/12/29 07:16:25;;;;;;;7.65;1.80;;;3.60;77.30;;;;;;4992672;28;82712;-75
2020/12/29 07:19:08;;;;;;;5.75;1.65;;;3.60;77.20;;;;;;5008897;28;80852;-73
2020/12/29 07:21:39;;;;;;;9.63;1.65;;;3.60;77.20;;;;;;5009643;28;81548;-72
2020/12/29 07:24:30;;;;;;;6.13;1.83;;;3.60;77.20;;;;;;5006319;28;80988;-74
2020/12/29 07:27:06;;;;;;;8.50;1.73;;;3.50;77.20;;;;;;4991473;28;81729;-72
2020/12/29 07:30:13;;;;;;;8.10;1.77;;;3.50;77.20;;;;;;4990582;28;82245;-71
2020/12/29 07:32:39;;;;;;;7.28;1.80;;;3.60;77.10;;;;;;4965427;28;81463;-72
2020/12/29 07:35:18;;;;;;;7.07;1.50;;;3.60;76.80;;;;;;4949199;28;82459;-71
2020/12/29 07:37:49;;;;;;;8.98;2.20;;;3.70;76.60;;;;;;4949935;28;82205;-74
2020/12/29 07:40:22;;;;;;;9.07;2.05;;;3.70;76.50;;;;;;4965564;28;81596;-73
2020/12/29 07:42:47;;;;;;;9.10;1.27;;;3.80;76.50;;;;;;4949497;28;82051;-74
2020/12/29 07:45:13;;;;;;;6.50;1.95;;;3.80;76.60;;;;;;4949266;28;82483;-76
2020/12/29 07:47:39;;;;;;;11.82;2.65;;;3.80;76.90;;;;;;4982136;28;81168;-72
2020/12/29 07:50:05;;;;;;;5.38;2.08;;;3.80;77.10;;;;;;4950109;28;82223;-74
2020/12/29 07:52:31;;;;;;;8.18;1.83;;;3.80;77.20;;;;;;4949403;28;81177;-75
2020/12/29 07:55:11;;;;;;;7.20;2.13;;;3.70;77.50;;;;;;4948816;28;81270;-75
2020/12/29 07:57:40;;;;;;;7.78;1.95;;;3.70;77.80;;;;;;4964752;28;81496;-70
2020/12/29 08:00:18;;;;;;;9.68;2.00;;;3.70;78.00;;;;;;5012775;28;81527;-71
2020/12/29 08:02:52;;;;;;;7.07;2.30;;;3.80;78.10;;;;;;4991905;28;81675;-70
2020/12/29 08:05:24;;;;;;;12.93;2.58;;;3.80;78.30;;;;;;4993438;28;81000;-72
2020/12/29 08:08:17;;;;;;;6.30;2.33;;;3.70;78.40;;;;;;4990860;28;81960;-71
2020/12/29 08:10:45;;;;;;;6.32;2.13;;;3.70;78.40;;;;;;4984549;28;81406;-72
2020/12/29 08:13:20;;;;;;;8.45;1.98;;;3.70;78.70;;;;;;4988439;28;80973;-73
2020/12/29 08:15:48;;;;;;;8.85;2.40;;;3.70;78.80;;;;;;5008608;28;80580;-70
2020/12/29 08:18:18;;;;;;;12.25;2.63;;;3.70;78.90;;;;;;4993693;28;80806;-77
2020/12/29 08:20:57;;;;;;;9.60;2.67;;;3.70;79.00;;;;;;4991108;28;83097;-74
2020/12/29 08:23:29;;;;;;;10.23;3.40;;;3.70;79.20;;;;;;4982277;28;82620;-73
2020/12/29 08:25:56;;;;;;;10.93;3.80;;;3.70;79.40;;;;;;5011136;28;80808;-75
2020/12/29 08:28:42;;;;;;;11.57;3.72;;;3.60;79.30;;;;;;4990880;28;82044;-72
2020/12/29 08:31:08;;;;;;;8.68;3.40;;;3.70;79.40;;;;;;4992796;28;82310;-74
2020/12/29 08:33:38;;;;;;;13.88;3.10;;;3.70;79.40;;;;;;4989189;28;81525;-72
2020/12/29 08:36:05;;;;;;;10.13;3.55;;;3.70;79.40;;;;;;5007645;28;80830;-74
2020/12/29 08:38:40;;;;;;;5.63;2.75;;;3.80;79.40;;;;;;5007734;28;81324;-70
2020/12/29 08:41:05;;;;;;;8.38;2.33;;;3.90;79.50;;;;;;4995620;28;82031;-71
2020/12/29 08:43:49;;;;;;;12.25;3.05;;;4.00;79.20;;;;;;5007484;28;81744;-72
2020/12/29 08:46:20;;;;;;;7.63;3.05;;;4.40;78.20;;;;;;4989748;28;81615;-66
2020/12/29 08:48:56;;;;;;;12.05;2.90;;;4.70;77.30;;;;;;4993089;28;81142;-67
2020/12/29 08:51:27;;;;;;;12.07;3.30;;;4.90;76.40;;;;;;5014132;28;81055;-66
2020/12/29 08:53:53;;;;;;;7.55;2.88;;;5.10;75.90;;;;;;5011764;28;81484;-62
2020/12/29 08:56:26;;;;;;;8.27;2.92;;;5.20;75.60;;;;;;5012596;28;81175;-65
2020/12/29 08:58:53;;;;;;;7.77;3.80;;;5.00;75.80;;;;;;5013820;28;81474;-62
2020/12/29 09:01:41;;;;;;;21.83;5.95;;;5.00;76.30;;;;;;5013937;28;82289;-66
2020/12/29 09:04:30;;;;;;;8.70;3.10;;;5.00;76.50;;;;;;5011447;28;81421;-65
2020/12/29 09:07:05;;;;;;;12.70;4.65;;;5.30;76.00;;;;;;5010341;28;81238;-62
2020/12/29 09:09:55;;;;;;;9.23;2.95;;;5.50;75.30;;;;;;5011147;28;80971;-67
2020/12/29 09:12:33;;;;;;;11.35;3.70;;;5.70;74.70;;;;;;4981723;28;82204;-65
2020/12/29 09:15:07;;;;;;;10.90;3.47;;;5.70;74.70;;;;;;5009273;28;82247;-64
2020/12/29 09:17:40;;;;;;;8.65;3.25;;;5.60;74.70;;;;;;5007336;28;81750;-65
2020/12/29 09:20:22;;;;;;;8.02;2.78;;;5.50;75.10;;;;;;4994275;28;83999;-65
2020/12/29 09:22:55;;;;;;;9.38;2.85;;;5.40;75.50;;;;;;4994803;28;81572;-66
2020/12/29 09:25:35;;;;;;;13.93;3.47;;;5.40;75.80;;;;;;4991762;28;81569;-63
2020/12/29 09:28:09;;;;;;;10.43;2.30;;;5.40;75.80;;;;;;4994984;28;82779;-64
2020/12/29 09:30:34;;;;;;;7.72;2.53;;;5.50;75.70;;;;;;4994916;28;81749;-65
2020/12/29 09:33:00;;;;;;;4.68;1.83;;;5.70;75.20;;;;;;4994502;28;82987;-64
2020/12/29 09:35:26;;;;;;;11.10;2.00;;;5.70;75.10;;;;;;5012166;28;81856;-64
2020/12/29 09:37:54;;;;;;;10.02;2.50;;;5.80;74.90;;;;;;5012690;28;82495;-63
2020/12/29 09:40:20;;;;;;;7.05;1.90;;;6.30;73.70;;;;;;5013726;28;81502;-69
2020/12/29 09:42:46;;;;;;;5.93;1.95;;;6.60;72.50;;;;;;5009168;28;82530;-65
2020/12/29 09:45:12;;;;;;;6.45;2.30;;;6.90;71.40;;;;;;4992446;28;81717;-63
2020/12/29 09:47:38;;;;;;;6.93;1.85;;;7.30;70.30;;;;;;5013586;28;81292;-63
2020/12/29 09:50:04;;;;;;;8.80;1.67;;;7.90;68.10;;;;;;5007651;28;80782;-60
2020/12/29 09:52:33;;;;;;;8.85;1.95;;;8.20;66.30;;;;;;4991715;28;81878;-66
2020/12/29 09:54:58;;;;;;;6.28;1.60;;;8.10;66.20;;;;;;4996042;28;83971;-64
2020/12/29 09:57:24;;;;;;;12.82;1.73;;;8.30;65.90;;;;;;4992671;28;81320;-65
2020/12/29 09:59:50;;;;;;;5.95;2.08;;;8.50;64.70;;;;;;5012188;28;81356;-67
2020/12/29 10:02:16;;;;;;;9.88;2.40;;;8.50;64.60;;;;;;4993349;28;83244;-64
2020/12/29 10:04:42;;;;;;;2.92;1.20;;;8.50;64.90;;;;;;4991889;28;83172;-62
2020/12/29 10:07:07;;;;;;;4.30;1.35;;;8.70;63.80;;;;;;5013876;28;82467;-62
2020/12/29 10:09:33;;;;;;;4.05;1.60;;;8.80;63.60;;;;;;5009306;28;80876;-63
2020/12/29 10:11:59;;;;;;;12.07;2.45;;;9.40;61.80;;;;;;5010322;28;81910;-63
2020/12/29 10:14:26;;;;;;;8.13;2.40;;;9.70;60.20;;;;;;5012397;28;81237;-63
2020/12/29 10:16:52;;;;;;;10.25;2.78;;;10.00;59.20;;;;;;5015133;28;81656;-65
2020/12/29 10:19:17;;;;;;;6.90;1.45;;;10.00;59.00;;;;;;5010119;28;81794;-65
2020/12/29 10:21:50;;;;;;;4.47;1.45;;;9.70;59.70;;;;;;5008720;28;81506;-70
2020/12/29 10:24:16;;;;;;;9.30;2.03;;;9.40;61.40;;;;;;4997016;28;83696;-67
2020/12/29 10:26:41;;;;;;;8.65;1.55;;;10.70;58.40;;;;;;5012617;28;81823;-64
2020/12/29 10:29:07;;;;;;;5.95;1.77;;;12.40;53.30;;;;;;5009533;28;81434;-64
2020/12/29 10:31:33;;;;;;;5.57;1.60;;;13.40;49.70;;;;;;5010460;28;81684;-67
2020/12/29 10:34:02;;;;;;;6.60;1.52;;;13.20;49.30;;;;;;5013465;28;81657;-65
2020/12/29 10:36:37;;;;;;;4.65;1.23;;;13.40;49.10;;;;;;4999314;28;83530;-63
2020/12/29 10:39:05;;;;;;;5.28;1.40;;;13.50;48.60;;;;;;4991597;28;81986;-67
2020/12/29 10:41:32;;;;;;;7.47;2.15;;;13.70;47.80;;;;;;5009629;28;81202;-68
2020/12/29 10:43:57;;;;;;;4.68;1.20;;;14.80;45.90;;;;;;4994235;28;81525;-68
2020/12/29 10:46:24;;;;;;;6.18;1.48;;;16.20;42.90;;;;;;5012780;28;81392;-65
2020/12/29 10:48:50;;;;;;;6.43;1.83;;;17.20;40.70;;;;;;5009046;28;81537;-64
2020/12/29 10:51:20;;;;;;;4.63;1.60;;;15.90;42.20;;;;;;5009385;28;80921;-70
2020/12/29 10:53:46;;;;;;;6.10;1.25;;;13.90;46.50;;;;;;5008772;28;80759;-63
2020/12/29 10:56:12;;;;;;;6.70;2.00;;;13.10;48.60;;;;;;4992243;28;84100;-65
2020/12/29 10:58:39;;;;;;;4.20;1.58;;;13.60;48.20;;;;;;5011594;28;81446;-68
2020/12/29 11:01:05;;;;;;;5.22;1.45;;;14.80;45.30;;;;;;5009052;28;81090;-68
2020/12/29 11:03:31;;;;;;;6.15;1.45;;;15.60;43.30;;;;;;4993473;28;83343;-65
2020/12/29 11:05:57;;;;;;;3.53;1.45;;;16.60;41.20;;;;;;4994607;28;81778;-67
2020/12/29 11:08:26;;;;;;;3.83;1.10;;;17.40;39.50;;;;;;5010444;28;81438;-64
2020/12/29 11:10:53;;;;;;;4.28;1.13;;;17.60;38.70;;;;;;5008920;28;81457;-65
2020/12/29 11:13:19;;;;;;;4.80;1.30;;;18.10;37.80;;;;;;5007117;28;81664;-68
2020/12/29 11:15:44;;;;;;;3.58;1.10;;;17.80;38.00;;;;;;4998619;28;82081;-68
2020/12/29 11:18:10;;;;;;;8.63;2.10;;;17.40;39.00;;;;;;5005571;28;81073;-66
2020/12/29 11:20:36;;;;;;;6.63;1.60;;;17.70;38.50;;;;;;5007804;28;80872;-69
2020/12/29 11:23:02;;;;;;;6.38;1.63;;;18.00;37.50;;;;;;5010115;28;81705;-68
2020/12/29 11:25:28;;;;;;;3.90;1.25;;;16.70;39.20;;;;;;5009236;28;81359;-64
2020/12/29 11:27:53;;;;;;;6.18;1.63;;;17.60;38.30;;;;;;5008734;28;81718;-67
2020/12/29 11:30:19;;;;;;;4.35;1.52;;;19.00;35.50;;;;;;5008940;28;82193;-63
2020/12/29 11:32:45;;;;;;;4.75;1.55;;;19.30;35.00;;;;;;5009711;28;81710;-65
2020/12/29 11:35:11;;;;;;;5.45;1.40;;;20.20;33.80;;;;;;5009132;28;83102;-64
2020/12/29 11:37:36;;;;;;;2.78;0.90;;;21.10;32.30;;;;;;5008431;28;81526;-64
2020/12/29 11:40:03;;;;;;;2.08;0.65;;;22.00;30.60;;;;;;5009157;28;81709;-69
2020/12/29 11:42:29;;;;;;;4.50;0.60;;;20.80;31.10;;;;;;5008080;28;81834;-69
2020/12/29 11:44:54;;;;;;;2.65;0.90;;;20.50;30.90;;;;;;5008252;28;81190;-67
2020/12/29 11:47:20;;;;;;;3.40;0.80;;;19.80;31.60;;;;;;4999902;28;83621;-68
2020/12/29 11:49:46;;;;;;;2.15;0.77;;;19.80;31.70;;;;;;5008083;28;80968;-67
2020/12/29 11:52:12;;;;;;;3.42;0.80;;;19.90;31.10;;;;;;5009063;28;80667;-65
2020/12/29 11:54:37;;;;;;;6.43;1.38;;;19.90;31.10;;;;;;5009592;28;81671;-65
2020/12/29 11:57:03;;;;;;;3.95;1.00;;;20.50;31.20;;;;;;5009107;28;82638;-64
2020/12/29 11:59:29;;;;;;;3.60;1.05;;;21.20;30.00;;;;;;5009144;28;81847;-68
2020/12/29 12:01:55;;;;;;;3.72;1.08;;;20.30;31.30;;;;;;5008434;28;80784;-67
2020/12/29 12:04:20;;;;;;;3.35;0.60;;;21.20;29.60;;;;;;5007673;28;81807;-63
2020/12/29 12:06:47;;;;;;;2.22;1.00;;;21.40;29.00;;;;;;5006990;28;81625;-64
2020/12/29 12:09:13;;;;;;;5.20;0.82;;;20.00;30.70;;;;;;5008072;28;81699;-62
2020/12/29 12:11:39;;;;;;;3.28;0.80;;;19.80;30.20;;;;;;4997541;28;83493;-63
2020/12/29 12:14:05;;;;;;;2.40;1.15;;;18.50;32.00;;;;;;4997765;28;85394;-63
2020/12/29 12:16:37;;;;;;;3.72;0.65;;;18.00;33.30;;;;;;5007643;28;81329;-63
2020/12/29 12:19:04;;;;;;;10.23;3.25;;;17.30;33.80;;;;;;5007481;28;81083;-69
2020/12/29 12:21:31;;;;;;;4.80;1.88;;;18.60;33.10;;;;;;4992913;28;82417;-67
2020/12/29 12:24:00;;;;;;;5.32;1.00;;;19.70;32.60;;;;;;5009842;28;81719;-66
2020/12/29 12:26:27;;;;;;;4.95;1.27;;;21.30;31.30;;;;;;5011676;28;81254;-65
2020/12/29 12:28:53;;;;;;;3.67;0.93;;;20.80;31.60;;;;;;4998179;28;82228;-67
2020/12/29 12:31:19;;;;;;;3.97;0.90;;;18.80;34.10;;;;;;4996888;28;82778;-64
2020/12/29 12:33:45;;;;;;;3.53;1.02;;;17.20;36.20;;;;;;5010584;28;82103;-64
2020/12/29 12:36:12;;;;;;;2.67;0.80;;;17.20;35.50;;;;;;5010633;28;81585;-66
2020/12/29 12:38:41;;;;;;;5.55;1.42;;;17.70;34.20;;;;;;5011368;28;81493;-66
2020/12/29 12:41:08;;;;;;;1.77;0.45;;;16.50;34.90;;;;;;5002244;28;81209;-72
2020/12/29 12:43:33;;;;;;;5.25;0.80;;;15.90;35.60;;;;;;5001034;28;82703;-69
2020/12/29 12:45:59;;;;;;;1.50;0.40;;;15.10;36.10;;;;;;4997143;28;80890;-65
2020/12/29 12:48:25;;;;;;;2.17;0.55;;;14.10;37.40;;;;;;5000537;28;81780;-67
2020/12/29 12:50:51;;;;;;;2.33;0.73;;;13.70;38.20;;;;;;5012395;28;81068;-68
2020/12/29 12:53:16;;;;;;;4.68;0.73;;;14.90;36.30;;;;;;5012374;28;81459;-66
2020/12/29 12:55:42;;;;;;;3.92;0.70;;;14.90;36.50;;;;;;5002223;28;81887;-68
2020/12/29 12:58:08;;;;;;;4.45;0.95;;;14.90;37.10;;;;;;5010971;28;81295;-64